sensor_id;sensor_type;location;lat;lon;timestamp;P1;durP1;ratioP1;P2;durP2;ratioP2
5805;SDS011;2929;50.810;8.342;2023-03-13T00:01:44;22.13;;;8.73;;
5805;SDS011;2929;50.810;8.342;2023-03-13T00:04:12;29.93;;;8.13;;
5805;SDS011;2929;50.810;8.342;2023-03-13T00:06:39;19.43;;;6.53;;
5805;SDS011;2929;50.810;8.342;2023-03-13T00:09:07;33.13;;;4.67;;
5805;SDS011;2929;50.810;8.342;2023-03-13T00:11:37;37.43;;;8.37;;
5805;SDS011;2929;50.810;8.342;2023-03-13T00:14:04;25.30;;;5.93;;
5805;SDS011;2929;50.810;8.342;2023-03-13T00:16:32;24.17;;;5.43;;
5805;SDS011;2929;50.810;8.342;2023-03-13T00:19:01;30.17;;;6.97;;
5805;SDS011;2929;50.810;8.342;2023-03-13T00:21:29;37.23;;;7.20;;
5805;SDS011;2929;50.810;8.342;2023-03-13T00:23:57;22.73;;;4.13;;
5805;SDS011;2929;50.810;8.342;2023-03-13T00:26:25;22.80;;;4.43;;
5805;SDS011;2929;50.810;8.342;2023-03-13T00:28:54;24.00;;;4.10;;
5805;SDS011;2929;50.810;8.342;2023-03-13T00:31:22;23.93;;;4.20;;
5805;SDS011;2929;50.810;8.342;2023-03-13T00:33:51;21.20;;;4.13;;
5805;SDS011;2929;50.810;8.342;2023-03-13T00:36:20;19.17;;;4.23;;
5805;SDS011;2929;50.810;8.342;2023-03-13T00:38:49;22.20;;;4.73;;
5805;SDS011;2929;50.810;8.342;2023-03-13T00:41:16;29.77;;;4.53;;
5805;SDS011;2929;50.810;8.342;2023-03-13T00:43:44;24.77;;;6.43;;
5805;SDS011;2929;50.810;8.342;2023-03-13T00:46:14;22.80;;;5.40;;
5805;SDS011;2929;50.810;8.342;2023-03-13T00:48:42;18.20;;;5.13;;
5805;SDS011;2929;50.810;8.342;2023-03-13T00:51:11;23.77;;;4.13;;
5805;SDS011;2929;50.810;8.342;2023-03-13T00:53:39;17.37;;;4.43;;
5805;SDS011;2929;50.810;8.342;2023-03-13T00:56:07;21.87;;;3.90;;
5805;SDS011;2929;50.810;8.342;2023-03-13T00:58:36;31.10;;;4.83;;
5805;SDS011;2929;50.810;8.342;2023-03-13T01:01:08;22.67;;;5.33;;
5805;SDS011;2929;50.810;8.342;2023-03-13T01:03:38;35.27;;;4.80;;
5805;SDS011;2929;50.810;8.342;2023-03-13T01:06:08;24.33;;;3.90;;
5805;SDS011;2929;50.810;8.342;2023-03-13T01:08:36;30.73;;;4.27;;
5805;SDS011;2929;50.810;8.342;2023-03-13T01:11:05;19.47;;;3.50;;
5805;SDS011;2929;50.810;8.342;2023-03-13T01:13:34;29.83;;;3.57;;
5805;SDS011;2929;50.810;8.342;2023-03-13T01:16:03;18.47;;;3.80;;
5805;SDS011;2929;50.810;8.342;2023-03-13T01:18:32;22.40;;;3.83;;
5805;SDS011;2929;50.810;8.342;2023-03-13T01:21:00;29.30;;;4.20;;
5805;SDS011;2929;50.810;8.342;2023-03-13T01:23:28;17.20;;;3.13;;
5805;SDS011;2929;50.810;8.342;2023-03-13T01:25:55;17.53;;;4.00;;
5805;SDS011;2929;50.810;8.342;2023-03-13T01:28:23;26.30;;;3.83;;
5805;SDS011;2929;50.810;8.342;2023-03-13T01:30:52;23.47;;;3.77;;
5805;SDS011;2929;50.810;8.342;2023-03-13T01:33:19;14.67;;;3.30;;
5805;SDS011;2929;50.810;8.342;2023-03-13T01:35:46;22.03;;;3.93;;
5805;SDS011;2929;50.810;8.342;2023-03-13T01:38:15;24.70;;;3.70;;
5805;SDS011;2929;50.810;8.342;2023-03-13T01:40:43;15.93;;;3.43;;
5805;SDS011;2929;50.810;8.342;2023-03-13T01:43:12;19.90;;;4.03;;
5805;SDS011;2929;50.810;8.342;2023-03-13T01:45:50;24.90;;;4.10;;
5805;SDS011;2929;50.810;8.342;2023-03-13T01:48:36;26.73;;;3.90;;
5805;SDS011;2929;50.810;8.342;2023-03-13T01:51:13;15.67;;;3.57;;
5805;SDS011;2929;50.810;8.342;2023-03-13T01:53:45;23.90;;;3.30;;
5805;SDS011;2929;50.810;8.342;2023-03-13T01:56:18;29.47;;;4.13;;
5805;SDS011;2929;50.810;8.342;2023-03-13T01:58:47;17.33;;;3.70;;
5805;SDS011;2929;50.810;8.342;2023-03-13T02:01:16;23.33;;;4.43;;
5805;SDS011;2929;50.810;8.342;2023-03-13T02:03:44;20.00;;;5.90;;
5805;SDS011;2929;50.810;8.342;2023-03-13T02:06:13;20.93;;;3.33;;
5805;SDS011;2929;50.810;8.342;2023-03-13T02:08:41;43.57;;;4.50;;
5805;SDS011;2929;50.810;8.342;2023-03-13T02:11:15;21.27;;;3.43;;
5805;SDS011;2929;50.810;8.342;2023-03-13T02:13:50;22.73;;;3.70;;
5805;SDS011;2929;50.810;8.342;2023-03-13T02:16:20;17.80;;;3.57;;
5805;SDS011;2929;50.810;8.342;2023-03-13T02:18:47;29.60;;;4.33;;
5805;SDS011;2929;50.810;8.342;2023-03-13T02:21:15;23.70;;;3.70;;
5805;SDS011;2929;50.810;8.342;2023-03-13T02:23:51;15.20;;;3.43;;
5805;SDS011;2929;50.810;8.342;2023-03-13T02:26:27;20.60;;;5.87;;
5805;SDS011;2929;50.810;8.342;2023-03-13T02:28:56;22.97;;;3.93;;
5805;SDS011;2929;50.810;8.342;2023-03-13T02:31:23;16.97;;;3.50;;
5805;SDS011;2929;50.810;8.342;2023-03-13T02:33:51;18.73;;;3.00;;
5805;SDS011;2929;50.810;8.342;2023-03-13T02:36:20;21.20;;;4.30;;
5805;SDS011;2929;50.810;8.342;2023-03-13T02:38:49;23.97;;;4.20;;
5805;SDS011;2929;50.810;8.342;2023-03-13T02:41:20;19.43;;;4.03;;
5805;SDS011;2929;50.810;8.342;2023-03-13T02:43:51;25.97;;;4.67;;
5805;SDS011;2929;50.810;8.342;2023-03-13T02:46:18;16.77;;;3.70;;
5805;SDS011;2929;50.810;8.342;2023-03-13T02:48:51;22.30;;;3.77;;
5805;SDS011;2929;50.810;8.342;2023-03-13T02:51:30;24.63;;;4.73;;
5805;SDS011;2929;50.810;8.342;2023-03-13T02:54:02;26.00;;;3.53;;
5805;SDS011;2929;50.810;8.342;2023-03-13T02:56:32;16.83;;;3.40;;
5805;SDS011;2929;50.810;8.342;2023-03-13T02:59:04;29.37;;;4.13;;
5805;SDS011;2929;50.810;8.342;2023-03-13T03:01:31;27.40;;;3.80;;
5805;SDS011;2929;50.810;8.342;2023-03-13T03:03:59;27.43;;;3.53;;
5805;SDS011;2929;50.810;8.342;2023-03-13T03:06:26;15.63;;;3.70;;
5805;SDS011;2929;50.810;8.342;2023-03-13T03:08:54;18.53;;;3.63;;
5805;SDS011;2929;50.810;8.342;2023-03-13T03:11:21;26.03;;;4.10;;
5805;SDS011;2929;50.810;8.342;2023-03-13T03:13:55;28.17;;;4.77;;
5805;SDS011;2929;50.810;8.342;2023-03-13T03:16:25;25.33;;;4.30;;
5805;SDS011;2929;50.810;8.342;2023-03-13T03:18:52;23.67;;;3.80;;
5805;SDS011;2929;50.810;8.342;2023-03-13T03:21:19;26.27;;;4.20;;
5805;SDS011;2929;50.810;8.342;2023-03-13T03:23:50;21.57;;;3.30;;
5805;SDS011;2929;50.810;8.342;2023-03-13T03:26:17;16.23;;;4.00;;
5805;SDS011;2929;50.810;8.342;2023-03-13T03:28:44;34.03;;;4.07;;
5805;SDS011;2929;50.810;8.342;2023-03-13T03:31:13;23.03;;;3.87;;
5805;SDS011;2929;50.810;8.342;2023-03-13T03:33:42;25.80;;;3.67;;
5805;SDS011;2929;50.810;8.342;2023-03-13T03:36:12;21.17;;;3.97;;
5805;SDS011;2929;50.810;8.342;2023-03-13T03:38:41;25.50;;;3.80;;
5805;SDS011;2929;50.810;8.342;2023-03-13T03:41:11;22.17;;;4.37;;
5805;SDS011;2929;50.810;8.342;2023-03-13T03:43:39;18.73;;;3.77;;
5805;SDS011;2929;50.810;8.342;2023-03-13T03:46:09;27.13;;;4.10;;
5805;SDS011;2929;50.810;8.342;2023-03-13T03:48:37;23.27;;;4.83;;
5805;SDS011;2929;50.810;8.342;2023-03-13T03:51:07;21.03;;;4.33;;
5805;SDS011;2929;50.810;8.342;2023-03-13T03:53:38;23.03;;;4.60;;
5805;SDS011;2929;50.810;8.342;2023-03-13T03:56:05;23.47;;;6.30;;
5805;SDS011;2929;50.810;8.342;2023-03-13T03:58:36;23.40;;;4.53;;
5805;SDS011;2929;50.810;8.342;2023-03-13T04:01:21;22.67;;;4.03;;
5805;SDS011;2929;50.810;8.342;2023-03-13T04:03:48;25.50;;;3.97;;
5805;SDS011;2929;50.810;8.342;2023-03-13T04:06:17;23.83;;;5.23;;
5805;SDS011;2929;50.810;8.342;2023-03-13T04:08:45;22.63;;;5.37;;
5805;SDS011;2929;50.810;8.342;2023-03-13T04:11:14;27.13;;;4.77;;
5805;SDS011;2929;50.810;8.342;2023-03-13T04:13:47;26.27;;;4.40;;
5805;SDS011;2929;50.810;8.342;2023-03-13T04:16:14;19.83;;;4.50;;
5805;SDS011;2929;50.810;8.342;2023-03-13T04:18:42;20.50;;;4.60;;
5805;SDS011;2929;50.810;8.342;2023-03-13T04:21:09;23.00;;;4.70;;
5805;SDS011;2929;50.810;8.342;2023-03-13T04:23:43;13.37;;;4.00;;
5805;SDS011;2929;50.810;8.342;2023-03-13T04:26:11;21.43;;;4.97;;
5805;SDS011;2929;50.810;8.342;2023-03-13T04:28:39;13.63;;;4.10;;
5805;SDS011;2929;50.810;8.342;2023-03-13T04:31:08;18.93;;;4.77;;
5805;SDS011;2929;50.810;8.342;2023-03-13T04:33:42;26.10;;;4.10;;
5805;SDS011;2929;50.810;8.342;2023-03-13T04:36:31;14.77;;;3.80;;
5805;SDS011;2929;50.810;8.342;2023-03-13T04:39:26;18.80;;;4.00;;
5805;SDS011;2929;50.810;8.342;2023-03-13T04:42:12;15.87;;;5.03;;
5805;SDS011;2929;50.810;8.342;2023-03-13T04:44:45;29.27;;;4.70;;
5805;SDS011;2929;50.810;8.342;2023-03-13T04:47:44;16.63;;;4.47;;
5805;SDS011;2929;50.810;8.342;2023-03-13T04:50:18;22.03;;;4.23;;
5805;SDS011;2929;50.810;8.342;2023-03-13T04:53:08;16.50;;;3.60;;
5805;SDS011;2929;50.810;8.342;2023-03-13T04:55:47;19.60;;;4.10;;
5805;SDS011;2929;50.810;8.342;2023-03-13T04:58:34;18.47;;;4.23;;
5805;SDS011;2929;50.810;8.342;2023-03-13T05:01:22;16.43;;;4.00;;
5805;SDS011;2929;50.810;8.342;2023-03-13T05:03:59;18.57;;;4.07;;
5805;SDS011;2929;50.810;8.342;2023-03-13T05:06:36;11.93;;;3.97;;
5805;SDS011;2929;50.810;8.342;2023-03-13T05:09:24;31.80;;;3.93;;
5805;SDS011;2929;50.810;8.342;2023-03-13T05:12:12;24.10;;;4.70;;
5805;SDS011;2929;50.810;8.342;2023-03-13T05:14:51;16.77;;;3.80;;
5805;SDS011;2929;50.810;8.342;2023-03-13T05:17:45;15.30;;;4.10;;
5805;SDS011;2929;50.810;8.342;2023-03-13T05:20:25;12.07;;;3.10;;
5805;SDS011;2929;50.810;8.342;2023-03-13T05:23:24;12.23;;;3.57;;
5805;SDS011;2929;50.810;8.342;2023-03-13T05:26:20;19.27;;;4.50;;
5805;SDS011;2929;50.810;8.342;2023-03-13T05:29:07;9.90;;;3.73;;
5805;SDS011;2929;50.810;8.342;2023-03-13T05:32:13;10.97;;;3.63;;
5805;SDS011;2929;50.810;8.342;2023-03-13T05:35:06;15.20;;;3.87;;
5805;SDS011;2929;50.810;8.342;2023-03-13T05:37:44;17.93;;;4.13;;
5805;SDS011;2929;50.810;8.342;2023-03-13T05:40:30;11.80;;;3.57;;
5805;SDS011;2929;50.810;8.342;2023-03-13T05:43:15;6.13;;;3.03;;
5805;SDS011;2929;50.810;8.342;2023-03-13T05:46:03;13.13;;;3.10;;
5805;SDS011;2929;50.810;8.342;2023-03-13T05:48:57;15.30;;;3.63;;
5805;SDS011;2929;50.810;8.342;2023-03-13T05:51:39;7.30;;;3.40;;
5805;SDS011;2929;50.810;8.342;2023-03-13T05:54:28;16.23;;;4.80;;
5805;SDS011;2929;50.810;8.342;2023-03-13T05:57:19;10.10;;;3.20;;
5805;SDS011;2929;50.810;8.342;2023-03-13T06:00:01;13.87;;;2.90;;
5805;SDS011;2929;50.810;8.342;2023-03-13T06:03:05;9.23;;;2.93;;
5805;SDS011;2929;50.810;8.342;2023-03-13T06:05:37;9.83;;;3.00;;
5805;SDS011;2929;50.810;8.342;2023-03-13T06:08:13;6.90;;;3.13;;
5805;SDS011;2929;50.810;8.342;2023-03-13T06:10:40;5.60;;;2.97;;
5805;SDS011;2929;50.810;8.342;2023-03-13T06:13:07;6.87;;;2.80;;
5805;SDS011;2929;50.810;8.342;2023-03-13T06:15:35;4.93;;;2.77;;
5805;SDS011;2929;50.810;8.342;2023-03-13T06:18:13;8.17;;;2.40;;
5805;SDS011;2929;50.810;8.342;2023-03-13T06:20:40;8.07;;;2.70;;
5805;SDS011;2929;50.810;8.342;2023-03-13T06:23:07;8.73;;;2.93;;
5805;SDS011;2929;50.810;8.342;2023-03-13T06:25:34;6.03;;;2.60;;
5805;SDS011;2929;50.810;8.342;2023-03-13T06:28:02;8.53;;;2.77;;
5805;SDS011;2929;50.810;8.342;2023-03-13T06:30:30;4.10;;;2.37;;
5805;SDS011;2929;50.810;8.342;2023-03-13T06:32:57;7.97;;;2.77;;
5805;SDS011;2929;50.810;8.342;2023-03-13T06:35:26;8.33;;;3.87;;
5805;SDS011;2929;50.810;8.342;2023-03-13T06:37:53;11.60;;;2.40;;
5805;SDS011;2929;50.810;8.342;2023-03-13T06:44:07;3.83;;;2.23;;
5805;SDS011;2929;50.810;8.342;2023-03-13T06:46:34;5.13;;;2.27;;
5805;SDS011;2929;50.810;8.342;2023-03-13T06:52:50;4.27;;;1.93;;
5805;SDS011;2929;50.810;8.342;2023-03-13T07:11:21;1.70;;;1.60;;
5805;SDS011;2929;50.810;8.342;2023-03-13T07:13:53;3.53;;;1.83;;
5805;SDS011;2929;50.810;8.342;2023-03-13T07:16:20;3.93;;;1.87;;
5805;SDS011;2929;50.810;8.342;2023-03-13T07:18:47;7.60;;;1.70;;
5805;SDS011;2929;50.810;8.342;2023-03-13T07:21:14;4.47;;;1.80;;
5805;SDS011;2929;50.810;8.342;2023-03-13T07:23:44;5.47;;;1.87;;
5805;SDS011;2929;50.810;8.342;2023-03-13T07:26:13;2.53;;;1.60;;
5805;SDS011;2929;50.810;8.342;2023-03-13T07:28:42;1.37;;;1.27;;
5805;SDS011;2929;50.810;8.342;2023-03-13T07:31:10;4.40;;;1.43;;
5805;SDS011;2929;50.810;8.342;2023-03-13T07:33:38;1.67;;;1.17;;
5805;SDS011;2929;50.810;8.342;2023-03-13T07:36:07;1.30;;;1.20;;
5805;SDS011;2929;50.810;8.342;2023-03-13T07:38:35;1.07;;;1.07;;
5805;SDS011;2929;50.810;8.342;2023-03-13T07:41:02;1.40;;;1.30;;
5805;SDS011;2929;50.810;8.342;2023-03-13T07:43:31;2.00;;;1.10;;
5805;SDS011;2929;50.810;8.342;2023-03-13T07:45:59;2.20;;;1.23;;
5805;SDS011;2929;50.810;8.342;2023-03-13T07:48:28;2.80;;;1.10;;
5805;SDS011;2929;50.810;8.342;2023-03-13T07:50:56;1.60;;;1.40;;
5805;SDS011;2929;50.810;8.342;2023-03-13T07:53:24;1.63;;;1.30;;
5805;SDS011;2929;50.810;8.342;2023-03-13T07:55:52;1.57;;;1.10;;
5805;SDS011;2929;50.810;8.342;2023-03-13T07:58:21;3.17;;;1.20;;
5805;SDS011;2929;50.810;8.342;2023-03-13T08:00:50;1.20;;;1.20;;
5805;SDS011;2929;50.810;8.342;2023-03-13T08:03:17;1.67;;;1.50;;
5805;SDS011;2929;50.810;8.342;2023-03-13T08:05:44;2.77;;;1.77;;
5805;SDS011;2929;50.810;8.342;2023-03-13T08:08:11;1.60;;;1.50;;
5805;SDS011;2929;50.810;8.342;2023-03-13T08:10:39;1.63;;;1.20;;
5805;SDS011;2929;50.810;8.342;2023-03-13T08:13:06;2.30;;;1.60;;
5805;SDS011;2929;50.810;8.342;2023-03-13T08:15:33;1.70;;;1.40;;
5805;SDS011;2929;50.810;8.342;2023-03-13T08:18:01;2.20;;;1.70;;
5805;SDS011;2929;50.810;8.342;2023-03-13T08:20:28;2.40;;;2.07;;
5805;SDS011;2929;50.810;8.342;2023-03-13T08:22:55;3.17;;;1.80;;
5805;SDS011;2929;50.810;8.342;2023-03-13T08:25:23;5.40;;;1.73;;
5805;SDS011;2929;50.810;8.342;2023-03-13T08:27:50;2.60;;;1.90;;
5805;SDS011;2929;50.810;8.342;2023-03-13T08:30:19;2.13;;;1.93;;
5805;SDS011;2929;50.810;8.342;2023-03-13T08:32:46;3.23;;;1.70;;
5805;SDS011;2929;50.810;8.342;2023-03-13T08:35:14;4.10;;;2.30;;
5805;SDS011;2929;50.810;8.342;2023-03-13T08:37:42;4.30;;;2.07;;
5805;SDS011;2929;50.810;8.342;2023-03-13T08:40:09;5.07;;;1.93;;
5805;SDS011;2929;50.810;8.342;2023-03-13T08:42:37;4.90;;;2.40;;
5805;SDS011;2929;50.810;8.342;2023-03-13T08:45:05;10.40;;;2.17;;
5805;SDS011;2929;50.810;8.342;2023-03-13T08:47:33;5.90;;;1.90;;
5805;SDS011;2929;50.810;8.342;2023-03-13T08:50:01;3.70;;;1.80;;
5805;SDS011;2929;50.810;8.342;2023-03-13T08:52:30;3.67;;;1.83;;
5805;SDS011;2929;50.810;8.342;2023-03-13T08:54:58;2.60;;;2.10;;
5805;SDS011;2929;50.810;8.342;2023-03-13T08:57:26;2.50;;;1.80;;
5805;SDS011;2929;50.810;8.342;2023-03-13T08:59:53;3.47;;;2.23;;
5805;SDS011;2929;50.810;8.342;2023-03-13T09:02:20;2.30;;;1.73;;
5805;SDS011;2929;50.810;8.342;2023-03-13T09:04:47;3.80;;;2.37;;
5805;SDS011;2929;50.810;8.342;2023-03-13T09:07:14;4.20;;;1.97;;
5805;SDS011;2929;50.810;8.342;2023-03-13T09:09:43;6.17;;;2.10;;
5805;SDS011;2929;50.810;8.342;2023-03-13T09:12:10;8.20;;;2.00;;
5805;SDS011;2929;50.810;8.342;2023-03-13T09:14:37;6.30;;;2.10;;
5805;SDS011;2929;50.810;8.342;2023-03-13T09:17:04;2.37;;;1.90;;
5805;SDS011;2929;50.810;8.342;2023-03-13T09:23:19;5.17;;;2.33;;
5805;SDS011;2929;50.810;8.342;2023-03-13T09:25:50;2.80;;;1.93;;
5805;SDS011;2929;50.810;8.342;2023-03-13T09:28:19;3.43;;;2.50;;
5805;SDS011;2929;50.810;8.342;2023-03-13T09:30:46;3.10;;;2.23;;
5805;SDS011;2929;50.810;8.342;2023-03-13T09:33:14;2.70;;;2.00;;
5805;SDS011;2929;50.810;8.342;2023-03-13T09:35:41;9.23;;;2.50;;
5805;SDS011;2929;50.810;8.342;2023-03-13T09:38:11;5.57;;;2.20;;
5805;SDS011;2929;50.810;8.342;2023-03-13T09:40:40;4.40;;;2.40;;
5805;SDS011;2929;50.810;8.342;2023-03-13T09:43:17;4.50;;;2.60;;
5805;SDS011;2929;50.810;8.342;2023-03-13T09:45:51;2.77;;;2.07;;
5805;SDS011;2929;50.810;8.342;2023-03-13T09:48:25;3.73;;;1.93;;
5805;SDS011;2929;50.810;8.342;2023-03-13T09:50:58;3.70;;;2.27;;
5805;SDS011;2929;50.810;8.342;2023-03-13T09:53:30;4.50;;;2.17;;
5805;SDS011;2929;50.810;8.342;2023-03-13T09:56:04;5.60;;;2.40;;
5805;SDS011;2929;50.810;8.342;2023-03-13T09:58:42;4.33;;;2.37;;
5805;SDS011;2929;50.810;8.342;2023-03-13T10:01:15;2.87;;;2.13;;
5805;SDS011;2929;50.810;8.342;2023-03-13T10:03:50;4.53;;;2.20;;
5805;SDS011;2929;50.810;8.342;2023-03-13T10:06:23;11.87;;;2.60;;
5805;SDS011;2929;50.810;8.342;2023-03-13T10:08:53;3.37;;;1.90;;
5805;SDS011;2929;50.810;8.342;2023-03-13T10:11:26;4.20;;;2.47;;
5805;SDS011;2929;50.810;8.342;2023-03-13T10:14:01;3.17;;;2.00;;
5805;SDS011;2929;50.810;8.342;2023-03-13T10:16:31;4.20;;;2.00;;
5805;SDS011;2929;50.810;8.342;2023-03-13T10:19:08;4.67;;;2.10;;
5805;SDS011;2929;50.810;8.342;2023-03-13T10:21:38;5.33;;;1.80;;
5805;SDS011;2929;50.810;8.342;2023-03-13T10:24:09;5.50;;;2.17;;
5805;SDS011;2929;50.810;8.342;2023-03-13T10:26:41;8.00;;;2.30;;
5805;SDS011;2929;50.810;8.342;2023-03-13T10:29:19;3.93;;;1.80;;
5805;SDS011;2929;50.810;8.342;2023-03-13T10:31:50;3.00;;;1.77;;
5805;SDS011;2929;50.810;8.342;2023-03-13T10:34:22;6.47;;;2.10;;
5805;SDS011;2929;50.810;8.342;2023-03-13T10:36:53;4.33;;;1.80;;
5805;SDS011;2929;50.810;8.342;2023-03-13T10:39:23;2.17;;;1.33;;
5805;SDS011;2929;50.810;8.342;2023-03-13T10:41:55;1.43;;;1.33;;
5805;SDS011;2929;50.810;8.342;2023-03-13T10:44:30;1.53;;;1.03;;
5805;SDS011;2929;50.810;8.342;2023-03-13T10:46:59;1.77;;;1.33;;
5805;SDS011;2929;50.810;8.342;2023-03-13T10:49:27;1.90;;;1.37;;
5805;SDS011;2929;50.810;8.342;2023-03-13T10:51:55;3.20;;;1.37;;
5805;SDS011;2929;50.810;8.342;2023-03-13T10:54:24;2.97;;;1.40;;
5805;SDS011;2929;50.810;8.342;2023-03-13T10:57:06;2.23;;;1.23;;
5805;SDS011;2929;50.810;8.342;2023-03-13T10:59:39;2.77;;;1.57;;
5805;SDS011;2929;50.810;8.342;2023-03-13T11:02:19;2.40;;;1.50;;
5805;SDS011;2929;50.810;8.342;2023-03-13T11:04:48;0.90;;;0.90;;
5805;SDS011;2929;50.810;8.342;2023-03-13T11:07:19;1.70;;;1.00;;
5805;SDS011;2929;50.810;8.342;2023-03-13T11:09:57;7.63;;;1.00;;
5805;SDS011;2929;50.810;8.342;2023-03-13T11:12:25;1.50;;;1.40;;
5805;SDS011;2929;50.810;8.342;2023-03-13T11:14:58;1.40;;;1.13;;
5805;SDS011;2929;50.810;8.342;2023-03-13T11:17:29;1.10;;;1.10;;
5805;SDS011;2929;50.810;8.342;2023-03-13T11:20:02;1.10;;;1.00;;
5805;SDS011;2929;50.810;8.342;2023-03-13T11:22:42;3.00;;;1.40;;
5805;SDS011;2929;50.810;8.342;2023-03-13T11:25:33;1.50;;;1.40;;
5805;SDS011;2929;50.810;8.342;2023-03-13T11:30:56;6.17;;;1.77;;
5805;SDS011;2929;50.810;8.342;2023-03-13T11:33:33;2.50;;;1.80;;
5805;SDS011;2929;50.810;8.342;2023-03-13T11:36:15;7.33;;;1.60;;
5805;SDS011;2929;50.810;8.342;2023-03-13T11:38:47;2.30;;;1.83;;
5805;SDS011;2929;50.810;8.342;2023-03-13T11:41:25;2.33;;;1.87;;
5805;SDS011;2929;50.810;8.342;2023-03-13T11:44:03;1.83;;;1.73;;
5805;SDS011;2929;50.810;8.342;2023-03-13T11:46:46;3.17;;;1.60;;
5805;SDS011;2929;50.810;8.342;2023-03-13T11:49:23;2.67;;;1.57;;
5805;SDS011;2929;50.810;8.342;2023-03-13T11:52:17;1.70;;;1.17;;
5805;SDS011;2929;50.810;8.342;2023-03-13T11:54:57;2.53;;;1.37;;
5805;SDS011;2929;50.810;8.342;2023-03-13T11:57:36;2.23;;;1.40;;
5805;SDS011;2929;50.810;8.342;2023-03-13T12:00:18;1.40;;;1.30;;
5805;SDS011;2929;50.810;8.342;2023-03-13T12:02:52;1.53;;;1.20;;
5805;SDS011;2929;50.810;8.342;2023-03-13T12:05:22;1.40;;;1.23;;
5805;SDS011;2929;50.810;8.342;2023-03-13T12:07:53;6.70;;;0.97;;
5805;SDS011;2929;50.810;8.342;2023-03-13T12:10:26;1.63;;;1.20;;
5805;SDS011;2929;50.810;8.342;2023-03-13T12:12:58;2.30;;;1.20;;
5805;SDS011;2929;50.810;8.342;2023-03-13T12:15:30;1.43;;;1.03;;
5805;SDS011;2929;50.810;8.342;2023-03-13T12:18:04;1.20;;;1.03;;
5805;SDS011;2929;50.810;8.342;2023-03-13T12:20:39;0.90;;;0.90;;
5805;SDS011;2929;50.810;8.342;2023-03-13T12:23:16;0.97;;;0.90;;
5805;SDS011;2929;50.810;8.342;2023-03-13T12:25:45;1.60;;;0.90;;
5805;SDS011;2929;50.810;8.342;2023-03-13T12:31:09;1.03;;;0.97;;
5805;SDS011;2929;50.810;8.342;2023-03-13T12:33:44;1.23;;;1.13;;
5805;SDS011;2929;50.810;8.342;2023-03-13T12:36:16;1.23;;;1.07;;
5805;SDS011;2929;50.810;8.342;2023-03-13T12:38:48;1.87;;;1.43;;
5805;SDS011;2929;50.810;8.342;2023-03-13T12:41:23;1.53;;;1.07;;
5805;SDS011;2929;50.810;8.342;2023-03-13T12:43:53;1.20;;;1.10;;
5805;SDS011;2929;50.810;8.342;2023-03-13T12:46:30;4.23;;;1.57;;
5805;SDS011;2929;50.810;8.342;2023-03-13T12:52:33;1.50;;;1.40;;
5805;SDS011;2929;50.810;8.342;2023-03-13T12:55:18;2.53;;;1.77;;
5805;SDS011;2929;50.810;8.342;2023-03-13T12:58:11;4.60;;;1.70;;
5805;SDS011;2929;50.810;8.342;2023-03-13T13:00:45;4.50;;;1.57;;
5805;SDS011;2929;50.810;8.342;2023-03-13T13:03:23;1.73;;;1.40;;
5805;SDS011;2929;50.810;8.342;2023-03-13T13:06:07;1.80;;;1.70;;
5805;SDS011;2929;50.810;8.342;2023-03-13T13:08:39;3.03;;;2.13;;
5805;SDS011;2929;50.810;8.342;2023-03-13T13:17:29;2.90;;;1.70;;
5805;SDS011;2929;50.810;8.342;2023-03-13T13:20:26;2.40;;;1.60;;
5805;SDS011;2929;50.810;8.342;2023-03-13T13:23:20;2.20;;;1.90;;
5805;SDS011;2929;50.810;8.342;2023-03-13T13:25:52;2.70;;;2.00;;
5805;SDS011;2929;50.810;8.342;2023-03-13T13:28:33;7.67;;;2.43;;
5805;SDS011;2929;50.810;8.342;2023-03-13T13:31:00;2.63;;;1.70;;
5805;SDS011;2929;50.810;8.342;2023-03-13T13:33:48;3.37;;;2.33;;
5805;SDS011;2929;50.810;8.342;2023-03-13T13:39:31;4.37;;;3.13;;
5805;SDS011;2929;50.810;8.342;2023-03-13T13:45:21;5.87;;;1.80;;
5805;SDS011;2929;50.810;8.342;2023-03-13T13:53:44;3.93;;;2.53;;
5805;SDS011;2929;50.810;8.342;2023-03-13T14:02:13;5.20;;;2.10;;
5805;SDS011;2929;50.810;8.342;2023-03-13T14:04:48;2.73;;;2.53;;
5805;SDS011;2929;50.810;8.342;2023-03-13T14:07:20;11.10;;;2.73;;
5805;SDS011;2929;50.810;8.342;2023-03-13T14:09:57;7.90;;;3.90;;
5805;SDS011;2929;50.810;8.342;2023-03-13T14:12:29;6.30;;;3.23;;
5805;SDS011;2929;50.810;8.342;2023-03-13T14:15:14;4.00;;;3.50;;
5805;SDS011;2929;50.810;8.342;2023-03-13T14:17:45;3.93;;;3.10;;
5805;SDS011;2929;50.810;8.342;2023-03-13T14:20:23;4.60;;;3.20;;
5805;SDS011;2929;50.810;8.342;2023-03-13T14:22:56;6.17;;;2.80;;
5805;SDS011;2929;50.810;8.342;2023-03-13T14:25:25;5.57;;;3.33;;
5805;SDS011;2929;50.810;8.342;2023-03-13T14:27:54;4.97;;;3.47;;
5805;SDS011;2929;50.810;8.342;2023-03-13T14:30:22;4.33;;;3.37;;
5805;SDS011;2929;50.810;8.342;2023-03-13T14:32:51;5.27;;;3.27;;
5805;SDS011;2929;50.810;8.342;2023-03-13T14:35:19;4.67;;;3.47;;
5805;SDS011;2929;50.810;8.342;2023-03-13T14:37:50;5.37;;;3.40;;
5805;SDS011;2929;50.810;8.342;2023-03-13T14:40:26;5.17;;;3.50;;
5805;SDS011;2929;50.810;8.342;2023-03-13T14:42:55;4.50;;;3.17;;
5805;SDS011;2929;50.810;8.342;2023-03-13T14:45:26;6.77;;;3.70;;
5805;SDS011;2929;50.810;8.342;2023-03-13T14:47:59;5.50;;;2.90;;
5805;SDS011;2929;50.810;8.342;2023-03-13T14:50:28;5.37;;;3.50;;
5805;SDS011;2929;50.810;8.342;2023-03-13T14:52:57;4.27;;;3.10;;
5805;SDS011;2929;50.810;8.342;2023-03-13T14:55:33;5.83;;;3.03;;
5805;SDS011;2929;50.810;8.342;2023-03-13T14:58:05;4.37;;;2.73;;
5805;SDS011;2929;50.810;8.342;2023-03-13T15:00:51;2.77;;;2.57;;
5805;SDS011;2929;50.810;8.342;2023-03-13T15:03:26;4.33;;;3.23;;
5805;SDS011;2929;50.810;8.342;2023-03-13T15:06:02;4.40;;;2.87;;
5805;SDS011;2929;50.810;8.342;2023-03-13T15:08:48;2.63;;;2.40;;
5805;SDS011;2929;50.810;8.342;2023-03-13T15:11:33;6.97;;;3.63;;
5805;SDS011;2929;50.810;8.342;2023-03-13T15:14:01;5.87;;;3.07;;
5805;SDS011;2929;50.810;8.342;2023-03-13T15:16:29;4.23;;;2.80;;
5805;SDS011;2929;50.810;8.342;2023-03-13T15:18:57;10.73;;;5.87;;
5805;SDS011;2929;50.810;8.342;2023-03-13T15:21:25;2.83;;;2.60;;
5805;SDS011;2929;50.810;8.342;2023-03-13T15:23:55;4.97;;;2.10;;
5805;SDS011;2929;50.810;8.342;2023-03-13T15:26:26;7.23;;;1.43;;
5805;SDS011;2929;50.810;8.342;2023-03-13T15:28:54;3.50;;;1.20;;
5805;SDS011;2929;50.810;8.342;2023-03-13T15:31:23;8.77;;;2.93;;
5805;SDS011;2929;50.810;8.342;2023-03-13T15:33:53;2.47;;;1.13;;
5805;SDS011;2929;50.810;8.342;2023-03-13T15:36:24;1.80;;;1.13;;
5805;SDS011;2929;50.810;8.342;2023-03-13T15:38:52;2.57;;;1.40;;
5805;SDS011;2929;50.810;8.342;2023-03-13T15:41:20;0.80;;;0.80;;
5805;SDS011;2929;50.810;8.342;2023-03-13T15:43:48;1.93;;;1.00;;
5805;SDS011;2929;50.810;8.342;2023-03-13T15:46:19;2.30;;;1.03;;
5805;SDS011;2929;50.810;8.342;2023-03-13T15:48:47;1.33;;;1.00;;
5805;SDS011;2929;50.810;8.342;2023-03-13T15:51:15;1.50;;;1.13;;
5805;SDS011;2929;50.810;8.342;2023-03-13T15:53:44;2.20;;;1.20;;
5805;SDS011;2929;50.810;8.342;2023-03-13T15:56:15;1.43;;;1.30;;
5805;SDS011;2929;50.810;8.342;2023-03-13T15:58:43;1.57;;;0.97;;
5805;SDS011;2929;50.810;8.342;2023-03-13T16:01:11;1.70;;;1.30;;
5805;SDS011;2929;50.810;8.342;2023-03-13T16:03:40;1.60;;;1.17;;
5805;SDS011;2929;50.810;8.342;2023-03-13T16:06:14;1.10;;;1.00;;
5805;SDS011;2929;50.810;8.342;2023-03-13T16:08:42;1.07;;;1.07;;
5805;SDS011;2929;50.810;8.342;2023-03-13T16:11:12;3.53;;;1.10;;
5805;SDS011;2929;50.810;8.342;2023-03-13T16:13:40;3.77;;;1.20;;
5805;SDS011;2929;50.810;8.342;2023-03-13T16:16:16;1.33;;;1.20;;
5805;SDS011;2929;50.810;8.342;2023-03-13T16:18:45;2.73;;;1.13;;
5805;SDS011;2929;50.810;8.342;2023-03-13T16:21:14;1.17;;;1.07;;
5805;SDS011;2929;50.810;8.342;2023-03-13T16:23:45;1.80;;;0.87;;
5805;SDS011;2929;50.810;8.342;2023-03-13T16:26:14;2.60;;;1.07;;
5805;SDS011;2929;50.810;8.342;2023-03-13T16:28:42;1.07;;;0.90;;
5805;SDS011;2929;50.810;8.342;2023-03-13T16:31:14;1.00;;;1.00;;
5805;SDS011;2929;50.810;8.342;2023-03-13T16:33:43;6.00;;;1.60;;
5805;SDS011;2929;50.810;8.342;2023-03-13T16:36:12;1.00;;;0.90;;
5805;SDS011;2929;50.810;8.342;2023-03-13T16:38:41;3.37;;;1.03;;
5805;SDS011;2929;50.810;8.342;2023-03-13T16:41:12;3.80;;;1.10;;
5805;SDS011;2929;50.810;8.342;2023-03-13T16:43:40;2.00;;;1.77;;